createdAt,value
2019-03-21T00:01:18.736Z,52.07
2019-03-21T00:03:50.506Z,52.20
2019-03-21T00:06:20.782Z,50.80
2019-03-21T00:08:51.462Z,51.37
2019-03-21T00:11:58.181Z,51.03
2019-03-21T00:14:32.564Z,51.07
2019-03-21T00:17:03.311Z,50.67
2019-03-21T00:19:33.498Z,51.10
2019-03-21T00:22:03.948Z,51.37
2019-03-21T00:24:34.138Z,51.20
2019-03-21T00:27:04.422Z,50.97
2019-03-21T00:29:34.739Z,51.07
2019-03-21T00:32:05.095Z,50.83
2019-03-21T00:34:35.306Z,50.97
2019-03-21T00:37:05.599Z,50.93
2019-03-21T00:39:35.786Z,50.33
2019-03-21T00:42:05.991Z,51.87
2019-03-21T00:44:36.179Z,50.70
2019-03-21T00:47:06.533Z,51.00
2019-03-21T00:49:36.714Z,50.63
2019-03-21T00:52:06.918Z,52.23
2019-03-21T00:54:37.107Z,51.03
2019-03-21T00:57:07.300Z,51.37
2019-03-21T00:59:37.502Z,50.93
2019-03-21T01:02:07.794Z,51.03
2019-03-21T01:04:37.999Z,51.47
2019-03-21T01:07:08.552Z,51.77
2019-03-21T01:09:39.617Z,51.13
2019-03-21T01:12:11.480Z,51.83
2019-03-21T01:14:41.673Z,51.17
2019-03-21T01:17:11.871Z,51.67
2019-03-21T01:19:42.063Z,52.30
2019-03-21T01:22:13.250Z,52.47
2019-03-21T01:24:43.440Z,51.37
2019-03-21T01:27:13.638Z,51.60
2019-03-21T01:29:43.839Z,52.00
2019-03-21T01:32:14.040Z,52.10
2019-03-21T01:34:44.231Z,51.63
2019-03-21T01:37:14.431Z,51.10
2019-03-21T01:39:44.610Z,51.00
2019-03-21T01:42:14.820Z,51.27
2019-03-21T01:44:45.029Z,51.67
2019-03-21T01:47:15.219Z,51.00
2019-03-21T01:49:45.426Z,51.90
2019-03-21T01:52:15.635Z,51.23
2019-03-21T01:54:45.859Z,51.53
2019-03-21T01:57:16.227Z,51.40
2019-03-21T01:59:46.508Z,51.73
2019-03-21T02:02:16.739Z,51.47
2019-03-21T02:04:46.982Z,51.50
2019-03-21T02:07:17.263Z,52.23
2019-03-21T02:09:47.451Z,51.97
2019-03-21T02:12:17.657Z,50.77
2019-03-21T02:14:52.135Z,50.97
2019-03-21T02:17:19.751Z,51.90
2019-03-21T02:19:49.942Z,51.17
2019-03-21T02:22:20.143Z,51.47
2019-03-21T02:24:50.335Z,50.70
2019-03-21T02:27:20.530Z,51.93
2019-03-21T02:29:50.756Z,51.40
2019-03-21T02:32:20.958Z,50.97
2019-03-21T02:34:51.150Z,51.77
2019-03-21T02:37:21.355Z,51.67
2019-03-21T02:39:59.305Z,50.93
2019-03-21T02:42:24.827Z,51.97
2019-03-21T02:45:07.613Z,51.37
2019-03-21T02:47:26.916Z,51.47
2019-03-21T02:49:57.135Z,51.53
2019-03-21T02:52:27.344Z,51.27
2019-03-21T02:54:57.576Z,51.00
2019-03-21T02:57:27.796Z,51.17
2019-03-21T02:59:57.991Z,51.23
2019-03-21T03:02:28.205Z,51.13
2019-03-21T03:04:58.395Z,51.33
2019-03-21T03:07:28.627Z,51.30
2019-03-21T03:09:58.823Z,51.23
2019-03-21T03:12:29.028Z,51.43
2019-03-21T03:14:59.242Z,50.93
2019-03-21T03:17:29.459Z,51.10
2019-03-21T03:19:59.642Z,51.37
2019-03-21T03:22:29.856Z,51.23
2019-03-21T03:25:00.317Z,51.17
2019-03-21T03:27:30.521Z,51.47
2019-03-21T03:30:00.732Z,51.27
2019-03-21T03:32:30.937Z,51.70
2019-03-21T03:35:01.298Z,51.93
2019-03-21T03:37:31.595Z,51.03
2019-03-21T03:40:01.849Z,51.20
2019-03-21T03:42:32.050Z,50.57
2019-03-21T03:45:02.251Z,51.43
2019-03-21T03:47:33.619Z,51.47
2019-03-21T03:50:04.129Z,51.77
2019-03-21T03:52:34.334Z,51.80
2019-03-21T03:55:05.109Z,51.47
2019-03-21T03:57:35.502Z,51.50
2019-03-21T04:00:06.826Z,52.87
2019-03-21T04:02:37.197Z,51.73
2019-03-21T04:05:08.679Z,52.10
2019-03-21T04:07:39.305Z,52.20
2019-03-21T04:10:13.707Z,51.33
2019-03-21T04:12:44.349Z,52.13
2019-03-21T04:15:14.698Z,51.87
2019-03-21T04:17:44.894Z,50.40
2019-03-21T04:20:16.392Z,50.50
2019-03-21T04:22:46.691Z,52.20
2019-03-21T04:25:19.991Z,50.93
2019-03-21T04:27:50.187Z,51.03
2019-03-21T04:30:20.435Z,51.10
2019-03-21T04:32:50.635Z,51.17
2019-03-21T04:35:20.838Z,51.00
2019-03-21T04:37:52.194Z,51.20
2019-03-21T04:40:22.371Z,51.27
2019-03-21T04:42:52.579Z,51.60
2019-03-21T04:45:22.863Z,50.30
2019-03-21T04:47:53.062Z,50.50
2019-03-21T04:50:24.978Z,50.97
2019-03-21T04:52:55.259Z,50.97
2019-03-21T04:55:25.555Z,50.67
2019-03-21T04:57:55.786Z,51.10
2019-03-21T05:00:28.127Z,51.23
2019-03-21T05:03:00.475Z,50.53
2019-03-21T05:05:30.746Z,50.63
2019-03-21T05:08:01.228Z,51.30
2019-03-21T05:10:31.503Z,50.20
2019-03-21T05:13:01.758Z,50.20
2019-03-21T05:15:34.547Z,51.00
2019-03-21T05:18:11.051Z,51.17
2019-03-21T05:20:41.243Z,51.30
2019-03-21T05:23:11.447Z,51.13
2019-03-21T05:25:41.711Z,50.53
2019-03-21T05:28:11.921Z,51.47
2019-03-21T05:31:03.679Z,51.13
2019-03-21T05:33:33.878Z,50.87
2019-03-21T05:36:04.215Z,51.90
2019-03-21T05:38:34.444Z,50.97
2019-03-21T05:41:04.639Z,50.47
2019-03-21T05:43:55.648Z,50.17
2019-03-21T05:46:27.162Z,50.70
2019-03-21T05:48:58.512Z,51.07
2019-03-21T05:51:28.704Z,50.37
2019-03-21T05:53:59.879Z,51.67
2019-03-21T05:56:30.108Z,50.43
2019-03-21T05:59:00.323Z,51.23
2019-03-21T06:01:30.612Z,51.17
2019-03-21T06:04:00.803Z,51.20
2019-03-21T06:06:38.825Z,51.17
2019-03-21T06:09:10.323Z,54.47
2019-03-21T06:11:42.439Z,50.37
2019-03-21T06:14:12.786Z,51.00
2019-03-21T06:16:42.991Z,51.60
2019-03-21T06:19:53.364Z,51.87
2019-03-21T06:23:00.234Z,53.30
2019-03-21T06:26:12.278Z,50.83
2019-03-21T06:28:42.489Z,50.93
2019-03-21T06:31:12.687Z,51.17
2019-03-21T06:33:42.911Z,50.40
2019-03-21T06:36:13.114Z,51.57
2019-03-21T06:38:43.318Z,50.37
2019-03-21T06:41:13.548Z,50.20
2019-03-21T06:43:43.772Z,51.33
2019-03-21T06:46:13.976Z,52.07
2019-03-21T06:48:45.193Z,50.93
2019-03-21T06:51:15.486Z,51.53
2019-03-21T06:53:45.704Z,50.50
2019-03-21T06:56:15.980Z,50.63
2019-03-21T06:58:46.186Z,51.73
2019-03-21T07:01:16.468Z,51.03
2019-03-21T07:03:46.682Z,51.27
2019-03-21T07:06:16.879Z,51.50
2019-03-21T07:08:47.099Z,51.23
2019-03-21T07:11:32.854Z,51.17
2019-03-21T07:14:05.667Z,50.57
2019-03-21T07:19:21.230Z,51.83
2019-03-21T07:21:52.615Z,51.70
2019-03-21T07:24:22.820Z,53.17
2019-03-21T07:26:53.032Z,52.20
2019-03-21T07:29:23.317Z,51.37
2019-03-21T07:31:53.523Z,52.00
2019-03-21T07:34:23.799Z,51.57
2019-03-21T07:36:55.019Z,51.53
2019-03-21T07:39:28.649Z,51.60
2019-03-21T07:42:01.196Z,51.77
2019-03-21T07:44:31.885Z,51.20
2019-03-21T07:47:12.670Z,51.97
2019-03-21T07:49:38.071Z,52.30
2019-03-21T07:52:09.768Z,51.17
2019-03-21T07:54:41.010Z,52.13
2019-03-21T07:57:12.324Z,51.30
2019-03-21T07:59:43.862Z,51.33
2019-03-21T08:02:15.332Z,52.03
2019-03-21T08:04:46.787Z,52.13
2019-03-21T08:07:18.015Z,52.10
2019-03-21T08:09:50.848Z,53.03
2019-03-21T08:12:21.526Z,52.50
2019-03-21T08:17:42.424Z,53.37
2019-03-21T08:20:13.853Z,52.90
2019-03-21T08:22:45.060Z,52.90
2019-03-21T08:25:15.948Z,53.27
2019-03-21T08:27:47.169Z,52.67
2019-03-21T08:30:33.011Z,52.90
2019-03-21T08:33:04.646Z,52.93
2019-03-21T08:35:36.032Z,52.97
2019-03-21T08:38:07.366Z,53.07
2019-03-21T08:40:38.915Z,55.57
2019-03-21T08:43:10.198Z,56.23
2019-03-21T08:45:41.550Z,56.60
2019-03-21T08:48:12.624Z,55.37
2019-03-21T08:50:44.049Z,56.57
2019-03-21T08:53:15.490Z,56.20
2019-03-21T08:55:46.799Z,56.90
2019-03-21T08:58:17.118Z,55.97
2019-03-21T09:00:47.439Z,55.40
2019-03-21T09:03:17.655Z,56.33
2019-03-21T09:05:47.884Z,54.80
2019-03-21T09:08:18.552Z,54.50
2019-03-21T09:10:48.762Z,53.53
2019-03-21T09:13:18.959Z,56.73
2019-03-21T09:15:49.342Z,56.10
2019-03-21T09:18:19.530Z,55.63
2019-03-21T09:20:49.775Z,56.50
2019-03-21T09:23:19.981Z,56.50
2019-03-21T09:25:51.323Z,56.27
2019-03-21T09:28:21.675Z,56.53
2019-03-21T09:30:51.886Z,56.10
2019-03-21T09:33:22.079Z,55.83
2019-03-21T09:35:52.282Z,56.50
2019-03-21T09:38:22.655Z,56.33
2019-03-21T09:40:52.930Z,56.30
2019-03-21T09:43:23.135Z,56.00
2019-03-21T09:45:53.336Z,55.83
2019-03-21T09:48:23.531Z,55.23
2019-03-21T09:50:53.814Z,55.20
2019-03-21T09:53:24.008Z,56.47
2019-03-21T09:55:54.223Z,55.20
2019-03-21T09:58:24.497Z,55.77
2019-03-21T10:00:54.700Z,54.80
2019-03-21T10:03:24.918Z,55.80
2019-03-21T10:05:55.184Z,56.87
2019-03-21T10:08:25.440Z,57.00
2019-03-21T10:10:55.685Z,56.97
2019-03-21T10:13:27.039Z,56.33
2019-03-21T10:15:57.231Z,57.03
2019-03-21T10:18:27.419Z,56.17
2019-03-21T10:20:57.637Z,57.43
2019-03-21T10:23:27.908Z,57.33
2019-03-21T10:25:58.209Z,56.50
2019-03-21T10:28:28.495Z,56.60
2019-03-21T10:30:58.814Z,55.90
2019-03-21T10:33:29.006Z,55.27
2019-03-21T10:35:59.267Z,55.93
2019-03-21T10:38:29.461Z,56.33
2019-03-21T10:41:05.987Z,55.70
2019-03-21T10:43:38.004Z,56.13
2019-03-21T10:46:12.060Z,56.70
2019-03-21T10:48:51.416Z,56.33
2019-03-21T10:51:21.651Z,55.10
2019-03-21T10:53:52.522Z,55.30
2019-03-21T10:56:22.735Z,54.23
2019-03-21T10:58:52.986Z,54.10
2019-03-21T11:01:23.304Z,53.80
2019-03-21T11:03:53.507Z,54.00
2019-03-21T11:06:23.787Z,53.83
2019-03-21T11:08:53.991Z,54.27
2019-03-21T11:11:24.192Z,54.57
2019-03-21T11:13:54.501Z,54.43
2019-03-21T11:16:24.766Z,54.33
2019-03-21T11:18:55.082Z,54.90
2019-03-21T11:21:25.279Z,54.20
2019-03-21T11:23:55.466Z,54.23
2019-03-21T11:26:25.747Z,54.50
2019-03-21T11:28:55.942Z,54.77
2019-03-21T11:31:27.123Z,54.37
2019-03-21T11:33:57.313Z,54.30
2019-03-21T11:36:37.793Z,54.57
2019-03-21T11:39:00.388Z,54.83
2019-03-21T11:41:30.584Z,54.33
2019-03-21T11:44:00.788Z,54.40
2019-03-21T11:46:31.087Z,55.33
2019-03-21T11:49:01.285Z,54.27
2019-03-21T11:51:31.476Z,54.27
2019-03-21T11:54:01.659Z,53.63
2019-03-21T11:56:31.876Z,54.40
2019-03-21T11:59:02.082Z,53.33
2019-03-21T12:01:32.306Z,54.10
2019-03-21T12:04:02.493Z,54.20
2019-03-21T12:06:32.731Z,54.43
2019-03-21T12:09:02.970Z,54.07
2019-03-21T12:11:33.208Z,54.57
2019-03-21T12:14:03.484Z,54.63
2019-03-21T12:16:33.690Z,55.10
2019-03-21T12:19:03.969Z,54.30
2019-03-21T12:21:34.168Z,53.73
2019-03-21T12:24:04.461Z,54.00
2019-03-21T12:26:34.647Z,53.43
2019-03-21T12:29:05.017Z,53.53
2019-03-21T12:31:35.206Z,53.43
2019-03-21T12:34:05.516Z,52.97
2019-03-21T12:36:35.771Z,53.60
2019-03-21T12:39:08.830Z,54.77
2019-03-21T12:41:39.027Z,53.37
2019-03-21T12:44:09.275Z,53.60
2019-03-21T12:46:39.470Z,53.60
2019-03-21T12:49:09.671Z,54.17
2019-03-21T12:51:39.863Z,53.83
2019-03-21T12:54:10.071Z,53.33
2019-03-21T12:56:40.267Z,54.40
2019-03-21T12:59:10.467Z,53.93
2019-03-21T13:01:40.747Z,53.30
2019-03-21T13:04:11.035Z,53.60
2019-03-21T13:06:41.306Z,53.57
2019-03-21T13:09:11.510Z,53.27
2019-03-21T13:11:41.819Z,53.07
2019-03-21T13:14:12.028Z,53.67
2019-03-21T13:16:42.241Z,53.90
2019-03-21T13:19:12.437Z,53.00
2019-03-21T13:21:42.614Z,53.73
2019-03-21T13:24:12.833Z,54.33
2019-03-21T13:26:43.023Z,53.50
2019-03-21T13:29:13.230Z,53.97
2019-03-21T13:31:43.614Z,54.33
2019-03-21T13:34:13.827Z,54.30
2019-03-21T13:36:44.015Z,53.53
2019-03-21T13:39:14.288Z,53.93
2019-03-21T13:41:44.507Z,53.07
2019-03-21T13:44:14.727Z,53.73
2019-03-21T13:46:44.922Z,52.93
2019-03-21T13:49:15.311Z,53.23
2019-03-21T13:51:45.571Z,53.10
2019-03-21T13:54:15.870Z,53.03
2019-03-21T13:56:46.070Z,53.00
2019-03-21T13:59:16.268Z,53.57
2019-03-21T14:01:46.479Z,53.23
2019-03-21T14:04:16.779Z,52.50
2019-03-21T14:06:47.187Z,53.43
2019-03-21T14:09:17.419Z,53.63
2019-03-21T14:11:47.619Z,53.30
2019-03-21T14:14:17.854Z,53.70
2019-03-21T14:16:48.069Z,52.90
2019-03-21T14:19:21.288Z,54.80
2019-03-21T14:21:51.487Z,53.47
2019-03-21T14:24:21.694Z,53.10
2019-03-21T14:26:51.895Z,53.37
2019-03-21T14:29:22.102Z,53.37
2019-03-21T14:31:53.347Z,53.00
2019-03-21T14:34:23.555Z,54.23
2019-03-21T14:36:53.756Z,53.90
2019-03-21T14:39:23.975Z,53.57
2019-03-21T14:41:54.219Z,54.00
2019-03-21T14:44:24.435Z,53.23
2019-03-21T14:46:54.662Z,52.73
2019-03-21T14:49:24.880Z,53.13
2019-03-21T14:51:55.134Z,54.27
2019-03-21T14:54:25.334Z,54.10
2019-03-21T14:56:55.526Z,53.83
2019-03-21T14:59:25.732Z,53.77
2019-03-21T15:01:55.946Z,53.77
2019-03-21T15:04:26.147Z,54.27
2019-03-21T15:06:56.382Z,54.10
2019-03-21T15:09:26.584Z,53.93
2019-03-21T15:11:56.870Z,54.03
2019-03-21T15:14:27.318Z,54.17
2019-03-21T15:16:57.505Z,53.47
2019-03-21T15:19:27.715Z,54.50
2019-03-21T15:21:57.919Z,54.53
2019-03-21T15:24:35.367Z,53.33
2019-03-21T15:27:05.638Z,53.73
2019-03-21T15:29:35.853Z,53.90
2019-03-21T15:32:06.239Z,53.87
2019-03-21T15:34:36.429Z,53.90
2019-03-21T15:37:06.591Z,55.50
2019-03-21T15:39:36.784Z,53.90
2019-03-21T15:42:06.979Z,54.17
2019-03-21T15:44:37.328Z,54.30
2019-03-21T15:47:07.500Z,54.33
2019-03-21T15:49:37.691Z,54.37
2019-03-21T15:52:07.939Z,54.37
2019-03-21T15:54:38.191Z,54.73
2019-03-21T15:57:08.375Z,55.63
2019-03-21T15:59:38.634Z,54.20
2019-03-21T16:02:08.925Z,53.50
2019-03-21T16:04:39.191Z,53.83
2019-03-21T16:07:09.394Z,54.90
2019-03-21T16:09:39.587Z,53.53
2019-03-21T16:12:09.767Z,54.80
2019-03-21T16:14:39.953Z,53.97
2019-03-21T16:17:10.132Z,54.20
2019-03-21T16:19:40.328Z,53.10
2019-03-21T16:22:10.540Z,53.17
2019-03-21T16:24:40.727Z,55.57
2019-03-21T16:27:10.920Z,54.40
2019-03-21T16:29:41.100Z,52.97
2019-03-21T16:32:12.356Z,52.83
2019-03-21T16:34:42.556Z,53.27
2019-03-21T16:37:12.742Z,52.70
2019-03-21T16:39:42.959Z,53.37
2019-03-21T16:42:13.147Z,52.70
2019-03-21T16:44:43.416Z,53.47
2019-03-21T16:47:13.599Z,52.50
2019-03-21T16:49:43.792Z,53.10
2019-03-21T16:52:13.995Z,53.10
2019-03-21T16:54:44.220Z,52.70
2019-03-21T16:57:14.406Z,53.17
2019-03-21T16:59:44.599Z,52.30
2019-03-21T17:02:14.871Z,53.00
2019-03-21T17:04:45.197Z,53.23
2019-03-21T17:07:15.384Z,52.80
2019-03-21T17:09:45.591Z,53.23
2019-03-21T17:12:15.854Z,53.10
2019-03-21T17:14:46.076Z,53.37
2019-03-21T17:17:16.275Z,52.87
2019-03-21T17:19:46.609Z,52.73
2019-03-21T17:22:16.839Z,52.57
2019-03-21T17:24:47.122Z,53.00
2019-03-21T17:27:17.320Z,52.67
2019-03-21T17:29:47.508Z,52.27
2019-03-21T17:32:17.963Z,53.57
2019-03-21T17:34:48.161Z,53.33
2019-03-21T17:37:18.331Z,52.77
2019-03-21T17:39:48.519Z,52.70
2019-03-21T17:42:20.947Z,52.80
2019-03-21T17:44:50.673Z,53.03
2019-03-21T17:47:20.919Z,53.13
2019-03-21T17:49:51.132Z,53.33
2019-03-21T17:52:23.030Z,52.57
2019-03-21T17:54:53.263Z,52.57
2019-03-21T17:57:33.940Z,52.40
2019-03-21T17:59:55.354Z,52.67
2019-03-21T18:02:25.780Z,53.30
2019-03-21T18:04:56.087Z,52.37
2019-03-21T18:07:26.284Z,52.43
2019-03-21T18:09:56.483Z,53.10
2019-03-21T18:12:26.676Z,52.60
2019-03-21T18:14:56.963Z,52.67
2019-03-21T18:17:27.179Z,52.50
2019-03-21T18:19:57.363Z,52.47
2019-03-21T18:22:27.635Z,51.97
2019-03-21T18:24:57.819Z,53.20
2019-03-21T18:27:28.022Z,52.10
2019-03-21T18:29:58.214Z,52.20
2019-03-21T18:32:28.619Z,53.60
2019-03-21T18:34:58.819Z,52.37
2019-03-21T18:37:29.012Z,52.47
2019-03-21T18:39:59.468Z,51.37
2019-03-21T18:42:29.648Z,51.77
2019-03-21T18:44:59.855Z,52.43
2019-03-21T18:47:30.051Z,53.20
2019-03-21T18:50:00.417Z,53.23
2019-03-21T18:52:34.413Z,52.47
2019-03-21T18:55:06.562Z,52.00
2019-03-21T18:57:37.480Z,52.27
2019-03-21T19:00:08.408Z,52.97
2019-03-21T19:02:38.606Z,52.73
2019-03-21T19:05:09.131Z,52.50
2019-03-21T19:07:39.467Z,52.90
2019-03-21T19:10:10.167Z,53.37
2019-03-21T19:12:40.431Z,53.13
2019-03-21T19:15:11.115Z,52.90
2019-03-21T19:17:41.600Z,53.20
2019-03-21T19:20:12.278Z,53.23
2019-03-21T19:22:42.567Z,52.80
2019-03-21T19:25:18.585Z,52.20
2019-03-21T19:27:45.656Z,52.60
2019-03-21T19:30:16.523Z,53.10
2019-03-21T19:32:46.802Z,52.37
2019-03-21T19:35:17.083Z,51.60
2019-03-21T19:37:47.398Z,52.40
2019-03-21T19:40:18.183Z,52.87
2019-03-21T19:42:48.416Z,52.80
2019-03-21T19:45:19.274Z,52.37
2019-03-21T19:47:49.484Z,52.27
2019-03-21T19:50:19.942Z,52.90
2019-03-21T19:52:50.304Z,52.30
2019-03-21T19:55:30.124Z,52.47
2019-03-21T19:57:52.520Z,52.63
2019-03-21T20:00:23.275Z,52.60
2019-03-21T20:02:54.670Z,53.33
2019-03-21T20:05:24.958Z,52.70
2019-03-21T20:07:55.252Z,53.13
2019-03-21T20:10:25.512Z,52.70
2019-03-21T20:12:55.731Z,52.27
2019-03-21T20:15:26.118Z,52.47
2019-03-21T20:17:56.403Z,52.30
2019-03-21T20:20:26.599Z,52.67
2019-03-21T20:22:56.815Z,52.43
2019-03-21T20:25:27.034Z,52.73
2019-03-21T20:27:57.242Z,52.67
2019-03-21T20:30:27.502Z,52.87
2019-03-21T20:32:57.710Z,52.27
2019-03-21T20:35:27.913Z,52.03
2019-03-21T20:37:58.141Z,52.43
2019-03-21T20:40:28.351Z,52.87
2019-03-21T20:42:59.411Z,53.13
2019-03-21T20:45:29.671Z,52.50
2019-03-21T20:47:59.879Z,53.27
2019-03-21T20:50:30.173Z,53.33
2019-03-21T20:53:00.487Z,52.83
2019-03-21T20:55:30.686Z,53.63
2019-03-21T20:58:00.931Z,53.37
2019-03-21T21:00:31.311Z,52.97
2019-03-21T21:03:01.567Z,52.80
2019-03-21T21:05:32.041Z,51.63
2019-03-21T21:08:07.228Z,52.50
2019-03-21T21:10:37.771Z,52.77
2019-03-21T21:13:07.974Z,53.60
2019-03-21T21:15:38.196Z,52.50
2019-03-21T21:18:08.399Z,52.80
2019-03-21T21:20:38.615Z,52.00
2019-03-21T21:23:11.153Z,52.37
2019-03-21T21:25:41.463Z,52.47
2019-03-21T21:28:11.675Z,53.13
2019-03-21T21:30:41.891Z,53.63
2019-03-21T21:33:12.172Z,52.83
2019-03-21T21:35:42.462Z,52.93
2019-03-21T21:38:12.671Z,53.03
2019-03-21T21:40:42.895Z,53.40
2019-03-21T21:43:13.115Z,53.20
2019-03-21T21:45:43.317Z,53.67
2019-03-21T21:48:13.532Z,53.27
2019-03-21T21:50:43.739Z,53.30
2019-03-21T21:53:13.964Z,54.23
2019-03-21T21:55:44.301Z,53.40
2019-03-21T21:58:14.510Z,54.20
2019-03-21T22:00:44.706Z,53.67
2019-03-21T22:03:15.995Z,54.00
2019-03-21T22:05:46.262Z,53.57
2019-03-21T22:08:31.129Z,53.03
2019-03-21T22:11:01.767Z,53.47
2019-03-21T22:13:31.987Z,53.07
2019-03-21T22:16:02.266Z,53.77
2019-03-21T22:18:32.715Z,52.73
2019-03-21T22:21:02.983Z,53.13
2019-03-21T22:23:33.301Z,54.60
2019-03-21T22:26:30.054Z,53.60
2019-03-21T22:29:01.885Z,54.53
2019-03-21T22:31:32.079Z,53.43
2019-03-21T22:34:02.279Z,54.63
2019-03-21T22:36:32.475Z,54.73
2019-03-21T22:39:02.774Z,55.03
2019-03-21T22:41:34.595Z,55.23
2019-03-21T22:44:06.439Z,55.93
2019-03-21T22:46:39.033Z,55.47
2019-03-21T22:49:11.163Z,55.47
2019-03-21T22:51:45.469Z,55.43
2019-03-21T22:54:15.684Z,54.53
2019-03-21T22:56:45.897Z,56.23
2019-03-21T22:59:16.099Z,55.20
2019-03-21T23:01:46.361Z,55.30
2019-03-21T23:04:16.646Z,55.37
2019-03-21T23:06:47.066Z,54.03
2019-03-21T23:09:18.947Z,54.70
2019-03-21T23:11:49.145Z,55.67
2019-03-21T23:14:19.347Z,54.87
2019-03-21T23:16:49.543Z,54.77
2019-03-21T23:19:19.744Z,55.57
2019-03-21T23:21:49.947Z,55.07
2019-03-21T23:24:20.162Z,55.13
2019-03-21T23:26:53.048Z,56.33
2019-03-21T23:29:22.502Z,56.23
2019-03-21T23:31:52.806Z,56.30
2019-03-21T23:34:23.082Z,55.77
2019-03-21T23:36:53.339Z,57.13
2019-03-21T23:39:23.552Z,55.43
2019-03-21T23:41:53.759Z,56.43
2019-03-21T23:44:24.119Z,57.00
2019-03-21T23:46:54.322Z,56.43
2019-03-21T23:49:24.559Z,56.40
2019-03-21T23:51:54.739Z,56.07
2019-03-21T23:54:24.954Z,56.20
2019-03-21T23:57:04.021Z,57.47
2019-03-21T23:59:27.053Z,56.83
